Time;durP1;ratioP1;P1;durP2;ratioP2;P2;SDS_P1;SDS_P2;PMS_P1;PMS_P2;Temp;Humidity;BMP_temperature;BMP_pressure;BME280_temperature;BME280_humidity;BME280_pressure;Samples;Min_cycle;Max_cycle;Signal;HPM_P1;HPM_P2
2021/04/04 00:01:46;;;;;;;15.83;9.87;;;7.00;99.90;;;;;;4964368;28;20658;-63
2021/04/04 00:04:19;;;;;;;16.40;9.67;;;7.10;99.90;;;;;;4956106;28;20616;-65
2021/04/04 00:06:53;;;;;;;15.67;9.90;;;7.10;99.90;;;;;;4967405;28;20648;-64
2021/04/04 00:09:27;;;;;;;14.43;8.90;;;7.10;99.90;;;;;;4966356;28;20722;-63
2021/04/04 00:11:55;;;;;;;20.93;9.30;;;7.00;99.90;;;;;;4961750;28;22305;-63
2021/04/04 00:14:25;;;;;;;16.30;10.07;;;6.90;99.90;;;;;;4963116;28;20663;-63
2021/04/04 00:16:56;;;;;;;15.50;8.50;;;6.90;99.90;;;;;;4962724;28;20643;-62
2021/04/04 00:19:25;;;;;;;16.20;10.83;;;6.90;99.90;;;;;;4962056;28;20657;-66
2021/04/04 00:21:54;;;;;;;18.07;8.47;;;7.00;99.90;;;;;;4959196;28;21486;-64
2021/04/04 00:24:21;;;;;;;13.20;9.70;;;7.00;99.90;;;;;;4966122;28;20708;-65
2021/04/04 00:26:49;;;;;;;16.47;8.60;;;7.00;99.90;;;;;;4964743;28;21047;-63
2021/04/04 00:29:19;;;;;;;17.03;8.43;;;7.00;99.90;;;;;;4964427;28;20652;-63
2021/04/04 00:31:47;;;;;;;23.20;9.00;;;7.00;99.90;;;;;;4958823;28;20694;-63
2021/04/04 00:34:24;;;;;;;15.77;8.60;;;7.00;99.90;;;;;;4962078;28;22652;-69
2021/04/04 00:36:55;;;;;;;15.60;7.60;;;6.90;99.90;;;;;;4963372;28;20585;-62
2021/04/04 00:39:29;;;;;;;18.60;7.37;;;6.90;99.90;;;;;;4956859;28;20764;-63
2021/04/04 00:42:03;;;;;;;15.83;7.97;;;7.00;99.90;;;;;;4964138;28;20686;-64
2021/04/04 00:44:34;;;;;;;13.57;8.50;;;7.10;99.90;;;;;;4962597;28;20615;-62
2021/04/04 00:47:17;;;;;;;;;;;;;;;;;;;;;
2021/04/04 00:49:50;;;;;;;19.07;8.27;;;6.90;99.90;;;;;;4980400;28;20644;-62
2021/04/04 00:52:24;;;;;;;14.87;7.70;;;6.90;99.90;;;;;;4982745;28;20687;-62
2021/04/04 00:54:52;;;;;;;15.73;8.10;;;6.90;99.90;;;;;;4985739;28;20837;-62
2021/04/04 00:57:20;;;;;;;22.23;8.40;;;7.00;99.90;;;;;;4972502;28;20682;-64
2021/04/04 00:59:51;;;;;;;17.43;7.60;;;7.00;99.90;;;;;;4975706;28;20636;-63
2021/04/04 01:02:21;;;;;;;17.80;8.90;;;6.90;99.90;;;;;;4972371;28;20738;-63
2021/04/04 01:04:49;;;;;;;15.27;8.47;;;6.90;99.90;;;;;;4965868;28;20659;-65
2021/04/04 01:07:20;;;;;;;16.03;8.10;;;6.90;99.90;;;;;;4962696;28;20814;-64
2021/04/04 01:09:46;;;;;;;16.80;8.30;;;6.90;99.90;;;;;;4963700;28;21322;-67
2021/04/04 01:12:24;;;;;;;16.67;7.80;;;6.80;99.90;;;;;;4968707;28;20631;-67
2021/04/04 01:15:14;;;;;;;11.87;8.07;;;6.80;99.90;;;;;;4960803;28;20794;-67
2021/04/04 01:17:47;;;;;;;12.97;8.00;;;6.80;99.90;;;;;;4963502;28;20752;-66
2021/04/04 01:20:23;;;;;;;14.23;8.27;;;6.80;99.90;;;;;;4987895;28;20585;-67
2021/04/04 01:23:08;;;;;;;16.00;8.20;;;6.70;99.90;;;;;;4971128;28;21096;-66
2021/04/04 01:26:04;;;;;;;14.20;8.57;;;6.60;99.90;;;;;;4963631;28;20913;-66
2021/04/04 01:28:45;;;;;;;18.80;9.00;;;6.60;99.90;;;;;;4952877;28;20658;-67
2021/04/04 01:31:17;;;;;;;13.27;8.60;;;6.60;99.90;;;;;;4965466;28;20617;-66
2021/04/04 01:34:04;;;;;;;16.30;10.37;;;6.60;99.90;;;;;;4964230;28;20744;-68
2021/04/04 01:37:00;;;;;;;14.07;9.47;;;6.50;99.90;;;;;;4964331;28;20628;-66
2021/04/04 01:39:35;;;;;;;18.40;9.80;;;6.50;99.90;;;;;;4969005;28;20639;-67
2021/04/04 01:42:13;;;;;;;14.13;9.50;;;6.50;99.90;;;;;;4962176;28;20932;-63
2021/04/04 01:44:47;;;;;;;13.57;8.73;;;6.50;99.90;;;;;;4959964;28;20635;-63
2021/04/04 01:47:16;;;;;;;15.67;8.30;;;6.40;99.90;;;;;;4961612;28;20606;-63
2021/04/04 01:49:53;;;;;;;20.10;8.80;;;6.50;99.90;;;;;;4965846;28;20739;-64
2021/04/04 01:52:24;;;;;;;13.77;8.80;;;6.60;99.90;;;;;;4964277;28;20643;-63
2021/04/04 01:54:53;;;;;;;14.67;8.60;;;6.50;99.90;;;;;;4969524;28;20644;-64
2021/04/04 01:57:24;;;;;;;13.50;8.60;;;6.60;99.90;;;;;;4978335;28;20632;-64
2021/04/04 01:59:51;;;;;;;16.33;9.27;;;6.60;99.90;;;;;;4986501;28;20616;-63
2021/04/04 02:02:20;;;;;;;15.30;8.33;;;6.50;99.90;;;;;;4986932;28;21214;-62
2021/04/04 02:05:08;;;;;;;11.50;8.30;;;6.50;99.90;;;;;;4982960;28;22179;-63
2021/04/04 02:07:42;;;;;;;15.37;8.20;;;6.50;99.90;;;;;;4968422;28;20758;-63
2021/04/04 02:10:19;;;;;;;15.53;7.27;;;6.40;99.90;;;;;;4956079;28;21163;-63
2021/04/04 02:12:56;;;;;;;15.87;8.80;;;6.30;99.90;;;;;;4962622;28;20747;-63
2021/04/04 02:18:16;;;;;;;15.33;7.77;;;6.40;99.90;;;;;;4966565;28;20640;-63
2021/04/04 02:20:57;;;;;;;;;;;;;;;;;;;;;
2021/04/04 02:23:29;;;;;;;14.97;8.47;;;6.30;99.90;;;;;;4966243;28;21313;-66
2021/04/04 02:25:56;;;;;;;15.33;8.17;;;6.40;99.90;;;;;;4964519;28;20723;-65
2021/04/04 02:28:25;;;;;;;23.03;9.00;;;6.40;99.90;;;;;;4965776;28;20671;-64
2021/04/04 02:31:00;;;;;;;13.43;7.77;;;6.30;99.90;;;;;;4962638;28;20616;-63
2021/04/04 02:33:48;;;;;;;14.17;7.40;;;6.40;99.90;;;;;;4964659;28;21310;-62
2021/04/04 02:36:20;;;;;;;19.40;7.83;;;6.30;99.90;;;;;;4963370;28;21241;-64
2021/04/04 02:38:54;;;;;;;12.93;6.97;;;6.30;99.90;;;;;;4962814;28;20656;-63
2021/04/04 02:41:20;;;;;;;15.60;8.17;;;6.30;99.90;;;;;;4971777;28;21139;-62
2021/04/04 02:44:03;;;;;;;;;;;;;;;;;;;;;
2021/04/04 02:49:39;;;;;;;14.23;6.60;;;6.50;99.90;;;;;;4961123;28;20651;-63
2021/04/04 02:52:22;;;;;;;12.87;7.47;;;6.50;99.90;;;;;;4963407;28;21051;-63
2021/04/04 02:55:26;;;;;;;14.77;8.00;;;6.40;99.90;;;;;;4960949;28;21503;-66
2021/04/04 02:57:58;;;;;;;13.67;7.07;;;6.30;99.90;;;;;;4964331;28;20647;-67
2021/04/04 03:00:27;;;;;;;15.80;8.10;;;6.20;99.90;;;;;;4967288;28;20755;-67
2021/04/04 03:02:57;;;;;;;12.00;8.00;;;6.20;99.90;;;;;;4964264;28;21088;-67
2021/04/04 03:05:25;;;;;;;13.77;7.80;;;6.40;99.90;;;;;;4968955;28;20948;-66
2021/04/04 03:07:55;;;;;;;13.47;7.80;;;6.40;99.90;;;;;;4964157;28;20639;-67
2021/04/04 03:10:20;;;;;;;15.73;7.90;;;6.30;99.90;;;;;;4962516;28;20747;-67
2021/04/04 03:12:52;;;;;;;19.57;8.30;;;6.30;99.90;;;;;;4961128;28;20655;-66
2021/04/04 03:15:28;;;;;;;10.77;7.80;;;6.30;99.90;;;;;;4962523;28;20348;-66
2021/04/04 03:18:05;;;;;;;13.57;7.23;;;6.30;99.90;;;;;;4965808;28;21254;-66
2021/04/04 03:20:34;;;;;;;13.03;7.37;;;6.30;99.90;;;;;;4965924;28;20679;-67
2021/04/04 03:23:00;;;;;;;9.30;6.80;;;6.20;99.90;;;;;;4957127;28;20743;-68
2021/04/04 03:25:34;;;;;;;15.47;7.87;;;6.30;99.90;;;;;;4963870;28;21327;-67
2021/04/04 03:28:08;;;;;;;13.97;7.70;;;6.30;99.90;;;;;;4965807;28;20650;-67
2021/04/04 03:30:43;;;;;;;11.77;7.30;;;6.40;99.90;;;;;;4963663;28;22655;-67
2021/04/04 03:33:13;;;;;;;15.10;8.20;;;6.30;99.90;;;;;;4967012;28;20776;-67
2021/04/04 03:35:50;;;;;;;;;;;;;;;;;;;;;
2021/04/04 03:38:38;;;;;;;10.17;7.13;;;6.20;99.90;;;;;;4962620;28;21729;-67
2021/04/04 03:41:07;;;;;;;12.97;7.10;;;6.20;99.90;;;;;;4964820;28;20613;-66
2021/04/04 03:43:40;;;;;;;14.60;7.20;;;6.30;99.90;;;;;;4970505;28;20674;-67
2021/04/04 03:46:17;;;;;;;14.23;7.73;;;6.10;99.90;;;;;;4960338;28;20640;-66
2021/04/04 03:48:48;;;;;;;20.03;7.73;;;6.10;99.90;;;;;;4968666;28;20682;-67
2021/04/04 03:51:31;;;;;;;15.10;8.03;;;6.10;99.90;;;;;;4965893;28;21027;-67
2021/04/04 03:54:05;;;;;;;13.03;7.37;;;6.00;99.90;;;;;;4965925;28;20777;-67
2021/04/04 03:56:52;;;;;;;12.70;7.20;;;6.00;99.90;;;;;;4986054;28;20642;-67
2021/04/04 03:59:23;;;;;;;13.13;6.93;;;6.00;99.90;;;;;;4968014;28;20718;-67
2021/04/04 04:04:54;;;;;;;12.37;7.30;;;5.90;99.90;;;;;;4966300;28;20647;-67
2021/04/04 04:07:42;;;;;;;17.47;8.03;;;5.90;99.90;;;;;;4966694;28;20651;-67
2021/04/04 04:10:15;;;;;;;12.87;6.90;;;5.90;99.90;;;;;;4967973;28;22876;-67
2021/04/04 04:12:46;;;;;;;14.47;6.90;;;5.90;99.90;;;;;;4977467;28;20651;-67
2021/04/04 04:15:33;;;;;;;12.40;6.27;;;5.90;99.90;;;;;;4967094;28;21443;-64
2021/04/04 04:18:09;;;;;;;13.80;7.37;;;6.00;99.90;;;;;;4965828;28;20742;-64
2021/04/04 04:20:43;;;;;;;12.83;7.30;;;6.10;99.90;;;;;;4966730;28;22490;-63
2021/04/04 04:23:19;;;;;;;15.40;8.07;;;6.00;99.90;;;;;;4963794;28;20723;-63
2021/04/04 04:25:58;;;;;;;14.00;8.60;;;5.80;99.90;;;;;;4962544;28;20718;-63
2021/04/04 04:28:32;;;;;;;11.80;6.77;;;5.90;99.90;;;;;;4963644;28;20691;-63
2021/04/04 04:31:13;;;;;;;11.73;7.10;;;5.90;99.90;;;;;;4963792;28;20705;-64
2021/04/04 04:33:45;;;;;;;10.37;6.70;;;5.90;99.90;;;;;;4965681;28;20652;-65
2021/04/04 04:36:14;;;;;;;13.10;6.53;;;6.00;99.90;;;;;;4979800;28;20753;-63
2021/04/04 04:39:00;;;;;;;12.40;6.57;;;6.00;99.90;;;;;;4963821;28;20679;-63
2021/04/04 04:41:47;;;;;;;13.27;7.53;;;5.90;99.90;;;;;;4966207;28;20958;-64
2021/04/04 04:44:18;;;;;;;11.10;7.27;;;5.90;99.90;;;;;;4964878;28;20660;-64
2021/04/04 04:46:51;;;;;;;12.10;7.57;;;6.10;99.90;;;;;;4962418;28;21953;-65
2021/04/04 04:49:38;;;;;;;11.43;6.77;;;6.00;99.90;;;;;;4976218;28;20729;-63
2021/04/04 04:52:16;;;;;;;9.40;6.10;;;6.10;99.90;;;;;;4953263;28;20746;-64
2021/04/04 04:54:43;;;;;;;14.23;6.93;;;6.20;99.90;;;;;;4962162;28;20694;-68
2021/04/04 04:57:16;;;;;;;12.40;6.70;;;6.10;99.90;;;;;;4953653;28;20632;-64
2021/04/04 04:59:44;;;;;;;12.50;6.03;;;6.20;99.90;;;;;;4959930;28;20656;-64
2021/04/04 05:02:13;;;;;;;12.43;6.57;;;6.20;99.90;;;;;;4962122;28;20686;-65
2021/04/04 05:04:38;;;;;;;18.00;6.80;;;6.10;99.90;;;;;;4962086;28;20691;-64
2021/04/04 05:07:12;;;;;;;12.67;6.30;;;6.00;99.90;;;;;;4975371;28;20617;-63
2021/04/04 05:10:07;;;;;;;9.50;6.60;;;6.00;99.90;;;;;;4959804;28;20251;-64
2021/04/04 05:12:47;;;;;;;11.93;5.60;;;6.10;99.90;;;;;;4960526;28;20635;-64
2021/04/04 05:15:25;;;;;;;12.80;5.50;;;6.20;99.90;;;;;;4961823;28;20792;-63
2021/04/04 05:18:05;;;;;;;9.97;5.90;;;6.20;99.90;;;;;;4961477;28;20967;-63
2021/04/04 05:20:48;;;;;;;11.87;5.33;;;6.30;99.90;;;;;;4967163;28;21230;-64
2021/04/04 05:23:33;;;;;;;11.93;5.10;;;6.30;99.90;;;;;;4960902;28;23786;-64
2021/04/04 05:26:05;;;;;;;11.13;5.70;;;6.30;99.90;;;;;;4960508;28;20688;-64
2021/04/04 05:28:44;;;;;;;11.90;5.83;;;6.30;99.90;;;;;;4975603;28;20699;-63
2021/04/04 05:31:18;;;;;;;12.50;4.70;;;6.40;99.90;;;;;;4962940;28;20627;-63
2021/04/04 05:33:49;;;;;;;9.63;4.40;;;6.30;99.90;;;;;;4961004;28;21044;-63
2021/04/04 05:36:39;;;;;;;8.77;4.17;;;6.40;99.90;;;;;;4958706;28;20683;-64
2021/04/04 05:39:10;;;;;;;14.57;4.60;;;6.30;99.90;;;;;;4946746;28;20664;-63
2021/04/04 05:41:41;;;;;;;6.93;3.97;;;6.30;99.90;;;;;;4959183;28;20671;-63
2021/04/04 05:44:09;;;;;;;7.47;4.67;;;6.30;99.90;;;;;;4960209;28;20643;-64
2021/04/04 05:46:39;;;;;;;11.20;4.83;;;6.20;99.90;;;;;;4964788;28;20624;-64
2021/04/04 05:49:22;;;;;;;8.17;4.13;;;6.30;99.90;;;;;;4958660;28;20651;-63
2021/04/04 05:52:14;;;;;;;14.97;4.57;;;6.30;99.90;;;;;;4953781;28;20655;-64
2021/04/04 05:55:12;;;;;;;9.87;4.20;;;6.30;99.90;;;;;;4959415;28;20658;-63
2021/04/04 05:57:58;;;;;;;9.67;4.30;;;6.40;99.90;;;;;;4961067;28;21381;-63
2021/04/04 06:00:27;;;;;;;8.63;4.47;;;6.30;99.90;;;;;;4959796;28;20618;-64
2021/04/04 06:03:26;;;;;;;8.33;3.57;;;6.50;99.90;;;;;;4951007;28;20706;-65
2021/04/04 06:06:29;;;;;;;12.47;5.57;;;6.60;99.90;;;;;;4946509;28;20617;-63
2021/04/04 06:09:19;;;;;;;11.30;4.17;;;6.50;99.90;;;;;;4956855;28;20670;-63
2021/04/04 06:12:06;;;;;;;10.70;4.20;;;6.60;99.90;;;;;;4956814;28;21172;-65
2021/04/04 06:15:00;;;;;;;9.40;4.73;;;6.50;99.90;;;;;;4957378;28;20734;-64
2021/04/04 06:17:28;;;;;;;10.33;4.20;;;6.50;99.90;;;;;;4960107;28;22884;-64
2021/04/04 06:20:13;;;;;;;13.17;4.97;;;6.60;99.90;;;;;;4960084;28;20620;-64
2021/04/04 06:22:59;;;;;;;8.67;4.03;;;6.60;99.90;;;;;;4956550;28;20982;-64
2021/04/04 06:25:54;;;;;;;9.53;3.50;;;6.60;99.90;;;;;;4956806;28;20625;-64
2021/04/04 06:28:38;;;;;;;5.03;3.23;;;6.70;99.90;;;;;;4952060;28;24047;-64
2021/04/04 06:31:16;;;;;;;9.30;5.00;;;6.80;99.90;;;;;;4955863;28;20623;-64
2021/04/04 06:33:45;;;;;;;13.13;4.17;;;6.80;99.90;;;;;;4965059;28;20643;-63
2021/04/04 06:36:23;;;;;;;6.37;3.27;;;6.80;99.90;;;;;;4990352;28;20727;-62
2021/04/04 06:39:22;;;;;;;8.17;3.90;;;6.80;99.90;;;;;;4972382;28;20725;-63
2021/04/04 06:42:06;;;;;;;6.60;3.47;;;6.70;99.90;;;;;;4959220;28;21547;-66
2021/04/04 06:44:54;;;;;;;8.37;4.00;;;6.90;99.90;;;;;;4960537;28;20667;-66
2021/04/04 06:47:48;;;;;;;5.60;3.80;;;6.90;99.90;;;;;;4958352;28;20643;-67
2021/04/04 06:50:22;;;;;;;9.00;4.13;;;7.00;99.90;;;;;;4956605;28;20628;-66
2021/04/04 06:53:32;;;;;;;7.83;3.60;;;7.00;99.90;;;;;;4961571;28;21551;-66
2021/04/04 06:56:12;;;;;;;5.73;3.57;;;7.00;99.90;;;;;;4918820;28;21000;-64
2021/04/04 06:58:59;;;;;;;7.50;3.57;;;7.00;99.90;;;;;;4919629;28;20662;-64
2021/04/04 07:01:59;;;;;;;7.00;3.60;;;7.00;99.90;;;;;;4918124;28;20704;-61
2021/04/04 07:04:56;;;;;;;6.73;3.50;;;7.10;99.90;;;;;;4915780;28;21080;-63
2021/04/04 07:07:48;;;;;;;9.30;3.40;;;7.20;99.90;;;;;;4917015;28;20645;-64
2021/04/04 07:10:20;;;;;;;5.10;3.00;;;7.20;99.90;;;;;;4915901;28;20781;-62
2021/04/04 07:13:10;;;;;;;9.70;3.30;;;7.20;99.90;;;;;;4918181;28;20773;-63
2021/04/04 07:16:20;;;;;;;9.13;3.93;;;7.20;99.90;;;;;;4903249;28;21497;-64
2021/04/04 07:18:49;;;;;;;7.60;3.90;;;7.30;99.90;;;;;;4918539;28;20653;-63
2021/04/04 07:21:37;;;;;;;7.00;4.27;;;7.30;99.90;;;;;;4918649;28;22293;-63
2021/04/04 07:24:18;;;;;;;7.10;4.13;;;7.20;99.90;;;;;;4923022;28;20696;-62
2021/04/04 07:27:03;;;;;;;10.30;3.80;;;7.20;99.90;;;;;;4934478;28;21140;-75
2021/04/04 07:29:51;;;;;;;5.97;4.03;;;7.10;99.90;;;;;;4940544;28;21213;-64
2021/04/04 07:32:29;;;;;;;7.73;3.70;;;7.10;99.90;;;;;;4934113;28;21427;-63
2021/04/04 07:35:04;;;;;;;8.30;4.73;;;7.20;99.90;;;;;;4939067;28;20683;-65
2021/04/04 07:38:10;;;;;;;7.07;3.40;;;7.20;99.90;;;;;;4938566;28;20629;-66
2021/04/04 07:40:48;;;;;;;6.07;3.60;;;7.20;99.90;;;;;;4935511;28;21284;-65
2021/04/04 07:43:21;;;;;;;9.20;5.13;;;7.20;99.90;;;;;;4958784;28;20767;-66
2021/04/04 07:46:09;;;;;;;11.60;5.07;;;7.20;99.90;;;;;;4943700;28;20629;-64
2021/04/04 07:49:05;;;;;;;9.70;4.80;;;7.20;99.90;;;;;;4959812;28;21679;-65
2021/04/04 07:51:34;;;;;;;12.73;4.83;;;7.20;99.90;;;;;;4929337;28;20597;-68
2021/04/04 07:54:32;;;;;;;9.70;6.00;;;7.20;99.90;;;;;;4952225;28;20623;-68
2021/04/04 07:57:14;;;;;;;11.33;4.30;;;7.30;99.90;;;;;;4951208;28;20987;-68
2021/04/04 07:59:50;;;;;;;9.87;4.80;;;7.20;99.90;;;;;;4949800;28;20706;-68
2021/04/04 08:02:41;;;;;;;6.87;4.77;;;7.20;99.90;;;;;;4956677;28;20709;-70
2021/04/04 08:05:09;;;;;;;9.93;4.70;;;7.20;99.90;;;;;;4963868;28;20623;-68
2021/04/04 08:07:53;;;;;;;8.30;4.90;;;7.40;99.90;;;;;;4961164;28;21359;-70
2021/04/04 08:10:25;;;;;;;10.30;4.67;;;7.30;99.90;;;;;;4960240;28;20619;-68
2021/04/04 08:13:18;;;;;;;8.17;5.37;;;7.30;99.90;;;;;;4953815;28;20745;-69
2021/04/04 08:16:10;;;;;;;8.33;5.40;;;7.40;99.90;;;;;;4951577;28;20642;-68
2021/04/04 08:18:36;;;;;;;9.40;5.13;;;7.50;99.90;;;;;;4955409;28;20652;-69
2021/04/04 08:21:27;;;;;;;9.43;5.57;;;7.40;99.90;;;;;;4957471;28;20683;-68
2021/04/04 08:24:07;;;;;;;12.37;5.53;;;7.40;99.90;;;;;;4946744;28;20771;-67
2021/04/04 08:26:50;;;;;;;11.80;5.00;;;7.50;99.90;;;;;;4956347;28;20632;-67
2021/04/04 08:29:23;;;;;;;11.07;5.40;;;7.50;99.90;;;;;;4959732;28;20652;-67
2021/04/04 08:32:18;;;;;;;13.87;5.90;;;7.50;99.90;;;;;;4945287;28;23932;-68
2021/04/04 08:34:50;;;;;;;11.70;5.97;;;7.40;99.90;;;;;;4947938;28;23087;-70
2021/04/04 08:37:21;;;;;;;12.30;5.40;;;7.50;99.90;;;;;;4951746;28;20608;-68
2021/04/04 08:39:57;;;;;;;11.77;6.17;;;7.40;99.90;;;;;;4954967;28;20667;-66
2021/04/04 08:42:23;;;;;;;10.27;5.80;;;7.40;99.90;;;;;;4952825;28;20647;-67
2021/04/04 08:44:51;;;;;;;11.37;6.13;;;7.40;99.90;;;;;;4955310;28;20764;-67
2021/04/04 08:47:30;;;;;;;8.83;5.13;;;7.40;99.90;;;;;;4962853;28;20626;-69
2021/04/04 08:49:58;;;;;;;11.33;5.20;;;7.40;99.90;;;;;;4982174;28;21628;-69
2021/04/04 08:52:30;;;;;;;10.33;5.30;;;7.30;99.90;;;;;;4954802;28;21405;-72
2021/04/04 08:54:56;;;;;;;9.40;5.60;;;7.50;99.90;;;;;;4957164;28;20755;-71
2021/04/04 08:57:42;;;;;;;12.83;5.80;;;7.60;99.90;;;;;;4966572;28;21441;-72
2021/04/04 09:00:11;;;;;;;11.70;5.53;;;7.60;99.90;;;;;;4960213;28;20255;-73
2021/04/04 09:02:51;;;;;;;9.40;4.83;;;7.70;99.90;;;;;;4954197;28;20667;-70
2021/04/04 09:05:21;;;;;;;11.90;4.87;;;7.70;99.90;;;;;;4965467;28;21966;-71
2021/04/04 09:07:47;;;;;;;7.57;4.23;;;7.70;99.90;;;;;;4980414;28;20679;-73
2021/04/04 09:10:15;;;;;;;8.17;4.17;;;7.70;99.90;;;;;;5050163;23;22087;-63
2021/04/04 09:12:44;;;;;;;7.73;4.63;;;7.70;99.90;;;;;;5056103;28;20626;-66
2021/04/04 09:15:13;;;;;;;7.67;4.33;;;7.80;99.90;;;;;;5040739;28;20647;-70
2021/04/04 09:18:08;;;;;;;9.13;4.00;;;7.80;99.90;;;;;;5005407;28;20761;-68
2021/04/04 09:20:39;;;;;;;9.87;4.30;;;7.90;99.90;;;;;;4995687;28;21360;-69
2021/04/04 09:23:05;;;;;;;8.23;4.63;;;7.90;99.90;;;;;;4994811;28;20685;-65
2021/04/04 09:25:33;;;;;;;10.30;3.90;;;7.90;99.90;;;;;;4996441;28;22132;-70
2021/04/04 09:27:59;;;;;;;7.17;3.90;;;7.90;99.90;;;;;;4998797;28;20622;-65
2021/04/04 09:30:36;;;;;;;6.73;3.67;;;8.00;99.90;;;;;;5002322;28;20666;-68
2021/04/04 09:33:06;;;;;;;9.43;3.90;;;8.00;99.90;;;;;;4998070;28;20630;-67
2021/04/04 09:35:32;;;;;;;5.03;3.33;;;8.00;99.90;;;;;;5000707;28;20642;-67
2021/04/04 09:38:07;;;;;;;9.63;3.80;;;7.90;99.90;;;;;;5030636;28;20606;-65
2021/04/04 09:40:34;;;;;;;5.83;3.07;;;7.90;99.90;;;;;;5049510;28;20665;-62
2021/04/04 09:43:06;;;;;;;6.93;3.00;;;8.00;99.90;;;;;;5039176;28;21267;-67
2021/04/04 09:45:32;;;;;;;5.83;3.20;;;8.00;99.90;;;;;;5044164;28;20610;-69
2021/04/04 09:47:57;;;;;;;5.27;2.90;;;8.00;99.90;;;;;;5043089;28;20625;-64
2021/04/04 09:50:30;;;;;;;5.70;3.10;;;8.10;99.90;;;;;;5003294;28;20216;-62
2021/04/04 09:52:57;;;;;;;7.40;3.10;;;8.10;99.90;;;;;;5002452;28;20230;-63
2021/04/04 09:55:26;;;;;;;5.80;2.80;;;8.10;99.90;;;;;;4995876;28;20651;-64
2021/04/04 09:57:54;;;;;;;6.60;3.47;;;8.10;99.90;;;;;;4997653;28;20714;-64
2021/04/04 10:00:45;;;;;;;6.47;3.73;;;8.10;99.90;;;;;;4997837;28;20630;-60
2021/04/04 10:03:16;;;;;;;7.60;3.70;;;8.10;99.90;;;;;;4996521;28;20992;-60
2021/04/04 10:05:43;;;;;;;9.70;3.80;;;8.30;99.90;;;;;;5002252;28;20713;-60
2021/04/04 10:08:23;;;;;;;8.27;2.83;;;8.20;99.90;;;;;;5000873;28;21164;-60
2021/04/04 10:10:54;;;;;;;9.13;3.33;;;8.20;99.90;;;;;;5006906;28;20695;-61
2021/04/04 10:13:26;;;;;;;6.90;3.20;;;8.30;99.90;;;;;;4986452;28;21149;-57
2021/04/04 10:15:55;;;;;;;7.20;3.83;;;8.40;99.90;;;;;;4988018;28;20647;-59
2021/04/04 10:18:21;;;;;;;4.37;2.77;;;8.40;99.90;;;;;;4992293;28;20622;-58
2021/04/04 10:20:51;;;;;;;7.10;2.90;;;8.30;99.90;;;;;;4988632;28;20638;-58
2021/04/04 10:23:17;;;;;;;7.23;2.90;;;8.20;99.90;;;;;;4983182;28;21219;-58
2021/04/04 10:26:07;;;;;;;4.37;2.97;;;8.20;99.90;;;;;;5001665;28;20646;-58
2021/04/04 10:28:48;;;;;;;5.83;3.00;;;8.20;99.90;;;;;;4986314;28;21231;-58
2021/04/04 10:31:15;;;;;;;6.03;2.40;;;8.30;99.90;;;;;;4986198;28;20614;-58
2021/04/04 10:33:41;;;;;;;4.90;2.60;;;8.30;99.90;;;;;;4985009;28;20666;-57
2021/04/04 10:36:12;;;;;;;4.00;2.90;;;8.30;99.90;;;;;;4987353;28;21063;-60
2021/04/04 10:38:38;;;;;;;4.83;3.10;;;8.30;99.90;;;;;;4989519;28;20733;-57
2021/04/04 10:41:04;;;;;;;5.40;2.50;;;8.30;99.90;;;;;;4990667;28;20670;-58
2021/04/04 10:43:45;;;;;;;6.53;2.60;;;8.30;99.90;;;;;;4984677;28;20408;-57
2021/04/04 10:46:15;;;;;;;8.13;2.50;;;8.40;99.90;;;;;;4986072;28;20669;-60
2021/04/04 10:48:46;;;;;;;3.93;2.43;;;8.40;99.90;;;;;;4984442;28;20957;-59
2021/04/04 10:51:16;;;;;;;3.70;2.37;;;8.50;99.90;;;;;;4984345;28;20933;-59
2021/04/04 10:53:43;;;;;;;5.00;2.93;;;8.60;99.90;;;;;;4984772;28;20618;-59
2021/04/04 10:56:11;;;;;;;5.30;2.87;;;8.50;99.90;;;;;;4984264;28;20654;-59
2021/04/04 10:58:38;;;;;;;4.60;2.80;;;8.60;99.90;;;;;;4987882;28;20748;-59
2021/04/04 11:01:05;;;;;;;4.50;2.70;;;8.60;99.90;;;;;;4984745;28;20743;-59
2021/04/04 11:03:31;;;;;;;4.33;2.20;;;8.60;99.90;;;;;;5000473;28;20643;-59
2021/04/04 11:05:59;;;;;;;5.53;2.63;;;8.60;99.90;;;;;;4983937;28;20712;-59
2021/04/04 11:08:25;;;;;;;3.93;2.20;;;8.50;99.90;;;;;;4984658;28;21211;-59
2021/04/04 11:10:51;;;;;;;5.30;2.80;;;8.70;99.90;;;;;;4987883;28;20658;-59
2021/04/04 11:13:18;;;;;;;8.10;2.97;;;8.80;99.90;;;;;;4985379;28;20258;-59
2021/04/04 11:16:05;;;;;;;3.50;2.40;;;8.80;99.90;;;;;;4984997;28;21166;-60
2021/04/04 11:18:34;;;;;;;6.30;3.10;;;8.90;99.90;;;;;;4987642;28;20606;-59
2021/04/04 11:21:03;;;;;;;7.97;2.97;;;8.80;99.90;;;;;;4988607;28;20645;-59
2021/04/04 11:23:29;;;;;;;7.80;3.20;;;8.90;99.90;;;;;;4985357;28;20769;-59
2021/04/04 11:25:55;;;;;;;5.30;2.90;;;9.00;99.90;;;;;;4989230;28;22822;-61
2021/04/04 11:28:24;;;;;;;5.70;2.90;;;8.80;99.90;;;;;;4998711;28;20606;-60
2021/04/04 11:30:51;;;;;;;3.83;2.43;;;8.60;99.90;;;;;;4995637;28;20658;-60
2021/04/04 11:33:20;;;;;;;5.80;2.50;;;8.60;99.90;;;;;;4995489;28;21212;-60
2021/04/04 11:36:03;;;;;;;5.30;2.70;;;8.50;99.90;;;;;;4999175;28;20646;-61
2021/04/04 11:38:30;;;;;;;4.70;2.90;;;8.60;99.90;;;;;;4993396;28;21661;-59
2021/04/04 11:41:15;;;;;;;6.57;3.03;;;8.60;99.90;;;;;;4999648;28;20753;-61
2021/04/04 11:43:41;;;;;;;3.50;2.37;;;8.70;99.90;;;;;;4989607;28;20838;-61
2021/04/04 11:46:40;;;;;;;6.47;2.83;;;8.70;99.90;;;;;;4991214;28;23616;-60
2021/04/04 11:49:34;;;;;;;3.87;2.70;;;8.80;99.90;;;;;;4987897;28;21469;-60
2021/04/04 11:52:09;;;;;;;5.60;2.57;;;8.90;99.90;;;;;;4992303;28;20591;-62
2021/04/04 11:57:16;;;;;;;10.40;2.90;;;8.70;99.90;;;;;;4992811;28;21685;-60
2021/04/04 11:59:44;;;;;;;5.93;2.93;;;8.80;99.90;;;;;;4989750;28;20662;-65
2021/04/04 12:02:12;;;;;;;5.40;2.73;;;8.90;99.90;;;;;;4987457;28;20621;-59
2021/04/04 12:04:48;;;;;;;6.13;2.63;;;8.90;99.90;;;;;;4991459;28;20634;-59
2021/04/04 12:07:18;;;;;;;3.23;2.20;;;8.90;99.90;;;;;;4990882;28;20641;-60
2021/04/04 12:09:47;;;;;;;5.80;2.57;;;8.90;99.90;;;;;;4996743;28;20897;-60
2021/04/04 12:12:14;;;;;;;4.73;2.20;;;8.80;99.90;;;;;;4996644;28;20738;-60
2021/04/04 12:14:53;;;;;;;5.33;2.60;;;8.80;99.90;;;;;;4994929;28;21554;-60
2021/04/04 12:17:24;;;;;;;2.10;1.90;;;8.80;99.90;;;;;;4992203;28;21523;-59
2021/04/04 12:19:50;;;;;;;4.87;2.23;;;8.90;99.90;;;;;;4996539;28;21208;-60
2021/04/04 12:22:17;;;;;;;5.77;2.23;;;8.80;99.90;;;;;;5000957;28;20693;-60
2021/04/04 12:24:51;;;;;;;4.47;2.30;;;8.80;99.90;;;;;;4995375;28;20708;-60
2021/04/04 12:27:24;;;;;;;2.20;2.00;;;8.70;99.90;;;;;;4992035;28;20654;-59
2021/04/04 12:29:52;;;;;;;3.87;2.67;;;8.70;99.90;;;;;;4994713;28;20766;-60
2021/04/04 12:32:29;;;;;;;4.10;1.67;;;8.80;99.90;;;;;;4991612;28;20686;-62
2021/04/04 12:35:00;;;;;;;2.70;1.50;;;8.80;99.90;;;;;;4998864;28;20653;-59
2021/04/04 12:37:28;;;;;;;1.40;1.30;;;8.80;99.90;;;;;;4992261;28;20668;-60
2021/04/04 12:39:58;;;;;;;6.03;2.00;;;8.90;99.90;;;;;;4989610;28;20674;-66
2021/04/04 12:42:32;;;;;;;2.13;1.93;;;9.00;99.90;;;;;;4993275;28;23022;-59
2021/04/04 12:44:58;;;;;;;1.90;1.60;;;9.10;99.90;;;;;;4995042;28;20691;-60
2021/04/04 12:47:27;;;;;;;3.17;1.80;;;9.20;99.90;;;;;;4988124;28;21702;-59
2021/04/04 12:49:58;;;;;;;4.23;2.03;;;9.20;99.90;;;;;;4992568;28;20269;-59
2021/04/04 12:52:46;;;;;;;2.70;1.70;;;9.20;99.90;;;;;;4993451;28;20614;-59
2021/04/04 12:55:11;;;;;;;2.70;1.80;;;9.20;99.90;;;;;;5005404;28;20743;-59
2021/04/04 12:57:38;;;;;;;2.30;2.07;;;9.20;99.90;;;;;;4987210;28;20713;-61
2021/04/04 13:00:25;;;;;;;3.80;2.17;;;9.10;99.90;;;;;;5001605;28;20379;-66
2021/04/04 13:02:55;;;;;;;4.37;2.80;;;9.20;99.90;;;;;;4990443;28;20601;-59
2021/04/04 13:05:21;;;;;;;6.10;2.63;;;9.30;99.90;;;;;;5006229;28;20684;-59
2021/04/04 13:07:47;;;;;;;3.10;2.43;;;9.30;99.90;;;;;;4991264;28;21115;-60
2021/04/04 13:10:13;;;;;;;3.40;2.27;;;9.20;99.90;;;;;;4987687;28;20989;-60
2021/04/04 13:12:39;;;;;;;5.47;2.60;;;9.20;99.90;;;;;;4994518;28;21901;-59
2021/04/04 13:15:07;;;;;;;3.77;2.30;;;9.30;99.90;;;;;;5001287;28;20219;-59
2021/04/04 13:17:41;;;;;;;4.20;2.63;;;9.20;99.90;;;;;;4989302;28;20667;-60
2021/04/04 13:20:10;;;;;;;2.40;2.20;;;9.20;99.90;;;;;;4993247;28;21298;-59
2021/04/04 13:22:37;;;;;;;4.37;2.80;;;9.20;99.90;;;;;;4984143;28;20648;-60
2021/04/04 13:25:07;;;;;;;4.07;2.43;;;9.30;99.90;;;;;;5000685;28;20669;-59
2021/04/04 13:27:33;;;;;;;4.10;2.30;;;9.10;99.90;;;;;;5011120;28;20645;-60
2021/04/04 13:29:59;;;;;;;5.60;2.70;;;9.00;99.90;;;;;;4992742;28;20677;-59
2021/04/04 13:32:41;;;;;;;3.57;3.00;;;8.90;99.90;;;;;;4994054;28;21247;-60
2021/04/04 13:35:07;;;;;;;4.20;3.80;;;8.90;99.90;;;;;;4995966;28;20649;-59
2021/04/04 13:37:42;;;;;;;5.70;2.83;;;8.90;99.90;;;;;;4998834;28;20654;-60
2021/04/04 13:40:10;;;;;;;3.90;2.87;;;9.10;99.90;;;;;;4990310;28;20645;-59
2021/04/04 13:43:00;;;;;;;4.00;2.80;;;9.10;99.90;;;;;;4983944;28;20646;-60
2021/04/04 13:45:40;;;;;;;3.80;2.43;;;9.10;99.90;;;;;;4999949;28;20642;-60
2021/04/04 13:48:12;;;;;;;5.30;2.80;;;9.10;99.90;;;;;;4999974;28;21307;-60
2021/04/04 13:50:49;;;;;;;4.57;2.40;;;9.20;99.90;;;;;;4999095;28;21052;-59
2021/04/04 13:53:35;;;;;;;3.20;2.33;;;9.20;99.90;;;;;;4996527;28;21427;-60